Terminal Aerodrome Forecast
Issued by NWS Cleveland, OH

Home | Current Version | Previous Version | Graphics & Text | Print | Product List | Glossary Off
Versions: 1 2 3 4 5 6 7 8 9 10 11 12 13 14 15 16 17 18 19 20

000
FTUS41 KCLE 070852 AAB
TAFCLE
TAF AMD
KCLE 070852Z 0709/0812 18010KT P6SM BKN040 BKN250
     FM071600 22010G20KT P6SM BKN035 OVC200
     FM071800 22010G20KT P6SM VCSH BKN035 OVC060
     FM072000 23014KT P6SM -SHRA VCTS OVC035CB
     FM080000 33010KT 3SM -SHRA BR OVC007
     FM080500 35010KT 6SM BR SCT010 OVC020=

USA.gov is the U.S. government's official web portal to all federal, state and local government web resources and services.